Time;durP1;ratioP1;P1;durP2;ratioP2;P2;SDS_P1;SDS_P2;PMS_P1;PMS_P2;Temp;Humidity;BMP_temperature;BMP_pressure;BME280_temperature;BME280_humidity;BME280_pressure;Samples;Min_cycle;Max_cycle;Signal;HPM_P1;HPM_P2
2023/07/03 00:00:15;;;;;;;1.17;1.17;;;;;;;16.39;100.00;90669.81;5031585;28;20116;-67
2023/07/03 00:02:41;;;;;;;2.60;2.45;;;;;;;16.37;100.00;90672.06;5032454;28;20102;-67
2023/07/03 00:05:08;;;;;;;0.98;0.98;;;;;;;16.31;100.00;90665.41;5032117;28;20037;-67
2023/07/03 00:07:34;;;;;;;1.58;1.38;;;;;;;16.30;100.00;90671.91;5032681;28;20037;-67
2023/07/03 00:10:00;;;;;;;1.85;1.70;;;;;;;16.21;100.00;90668.63;5031937;28;20029;-67
2023/07/03 00:12:25;;;;;;;6.35;1.50;;;;;;;16.09;100.00;90666.03;5032058;28;20037;-67
2023/07/03 00:14:51;;;;;;;2.25;1.77;;;;;;;15.99;100.00;90664.69;5032336;28;20053;-67
2023/07/03 00:17:16;;;;;;;1.67;1.42;;;;;;;15.86;100.00;90661.31;5032105;28;20030;-67
2023/07/03 00:19:42;;;;;;;1.63;1.52;;;;;;;15.72;100.00;90666.31;5031894;28;20034;-67
2023/07/03 00:22:07;;;;;;;1.88;1.55;;;;;;;15.58;100.00;90663.25;5031960;28;20057;-67
2023/07/03 00:24:34;;;;;;;1.75;1.65;;;;;;;15.55;100.00;90670.09;5032049;28;20030;-67
2023/07/03 00:27:00;;;;;;;1.60;1.48;;;;;;;15.40;100.00;90665.47;5032188;28;20407;-67
2023/07/03 00:29:29;;;;;;;2.53;2.10;;;;;;;15.35;100.00;90665.75;5032016;28;20109;-67
2023/07/03 00:31:55;;;;;;;2.17;1.90;;;;;;;15.24;100.00;90670.81;5031781;28;20025;-67
2023/07/03 00:34:20;;;;;;;1.30;1.30;;;;;;;15.16;100.00;90661.03;5032183;28;20037;-68
2023/07/03 00:36:46;;;;;;;2.08;1.85;;;;;;;15.17;100.00;90664.50;5032028;28;20099;-68
2023/07/03 00:39:11;;;;;;;1.23;1.23;;;;;;;15.25;100.00;90658.19;5031987;28;20025;-67
2023/07/03 00:41:37;;;;;;;2.15;2.05;;;;;;;15.28;100.00;90671.69;5031729;28;20025;-66
2023/07/03 00:44:03;;;;;;;2.28;2.08;;;;;;;15.24;100.00;90668.13;5032172;28;20025;-66
2023/07/03 00:46:28;;;;;;;1.08;1.08;;;;;;;15.12;100.00;90668.19;5032001;28;20038;-67
2023/07/03 00:48:53;;;;;;;2.10;1.48;;;;;;;15.00;100.00;90665.59;5031620;28;20032;-67
2023/07/03 00:51:19;;;;;;;1.75;1.65;;;;;;;14.89;100.00;90659.16;5031438;28;20128;-67
2023/07/03 00:53:44;;;;;;;1.70;1.52;;;;;;;14.82;100.00;90665.06;5032182;28;20025;-67
2023/07/03 00:56:12;;;;;;;1.30;1.20;;;;;;;14.74;100.00;90657.19;5031901;28;20091;-67
2023/07/03 00:58:38;;;;;;;1.70;1.55;;;;;;;14.69;100.00;90660.91;5032219;28;20029;-67
2023/07/03 01:01:48;;;;;;;1.70;1.60;;;;;;;14.76;100.00;90660.31;5031937;28;20032;-68
2023/07/03 01:04:17;;;;;;;3.03;1.52;;;;;;;14.79;100.00;90665.75;5028434;28;20038;-68
2023/07/03 01:06:51;;;;;;;2.60;2.40;;;;;;;14.84;100.00;90667.44;5031729;28;20026;-68
2023/07/03 01:09:20;;;;;;;2.65;1.65;;;;;;;14.83;100.00;90666.66;5031463;28;20030;-68
2023/07/03 01:11:47;;;;;;;3.90;1.88;;;;;;;14.88;100.00;90668.31;5035247;28;20487;-68
2023/07/03 01:14:18;;;;;;;2.10;2.00;;;;;;;14.85;100.00;90669.00;5035326;28;20033;-68
2023/07/03 01:16:46;;;;;;;2.65;1.60;;;;;;;14.86;100.00;90682.03;5035400;28;20029;-67
2023/07/03 01:19:18;;;;;;;2.38;2.15;;;;;;;14.91;100.00;90672.97;5035372;28;20154;-68
2023/07/03 01:21:58;;;;;;;2.60;1.55;;;;;;;14.96;100.00;90676.19;5035398;28;20112;-67
2023/07/03 01:24:39;;;;;;;1.45;1.35;;;;;;;14.98;100.00;90675.84;5035333;28;20068;-67
2023/07/03 01:27:07;;;;;;;1.40;1.35;;;;;;;14.88;100.00;90673.66;5035162;28;20113;-67
2023/07/03 01:29:33;;;;;;;1.73;1.58;;;;;;;14.76;100.00;90676.38;5034888;28;20037;-67
2023/07/03 01:32:02;;;;;;;1.60;1.50;;;;;;;14.68;100.00;90676.19;5034899;28;20022;-67
2023/07/03 01:34:28;;;;;;;2.15;2.05;;;;;;;14.68;100.00;90675.41;5035130;28;20033;-66
2023/07/03 01:36:57;;;;;;;2.97;2.08;;;;;;;14.62;100.00;90677.50;5034849;28;20376;-67
2023/07/03 01:39:23;;;;;;;2.03;1.92;;;;;;;14.64;100.00;90685.19;5034944;28;20107;-67
2023/07/03 01:41:49;;;;;;;1.70;1.60;;;;;;;14.59;100.00;90680.09;5034916;28;20077;-67
2023/07/03 01:44:15;;;;;;;3.75;3.22;;;;;;;14.53;100.00;90679.56;5034777;28;20033;-67
2023/07/03 01:46:40;;;;;;;2.15;1.95;;;;;;;14.50;100.00;90687.47;5034903;28;20029;-67
2023/07/03 01:49:14;;;;;;;1.27;1.23;;;;;;;14.49;100.00;90688.59;5034507;28;20029;-67
2023/07/03 01:51:52;;;;;;;1.83;1.73;;;;;;;14.44;100.00;90686.94;5034416;28;20121;-67
2023/07/03 01:54:27;;;;;;;1.27;1.27;;;;;;;14.50;100.00;90696.28;5034538;28;20029;-67
2023/07/03 01:56:54;;;;;;;1.63;1.52;;;;;;;14.49;100.00;90689.34;5034789;28;20032;-67
2023/07/03 01:59:24;;;;;;;1.95;1.85;;;;;;;14.51;100.00;90689.81;5034315;28;20029;-67
2023/07/03 02:01:59;;;;;;;1.83;1.77;;;;;;;14.49;100.00;90692.03;5034400;28;20044;-67
2023/07/03 02:04:32;;;;;;;1.63;1.52;;;;;;;14.44;100.00;90700.31;5034343;28;20037;-67
2023/07/03 02:07:00;;;;;;;1.50;1.40;;;;;;;14.39;100.00;90701.31;5034318;28;20068;-67
2023/07/03 02:09:26;;;;;;;3.95;2.72;;;;;;;14.32;100.00;90705.63;5034214;28;20041;-67
2023/07/03 02:11:52;;;;;;;3.97;3.60;;;;;;;14.24;100.00;90696.63;5034288;28;20549;-67
2023/07/03 02:14:18;;;;;;;1.85;1.77;;;;;;;14.18;100.00;90705.19;5034113;28;20037;-67
2023/07/03 02:16:46;;;;;;;1.70;1.60;;;;;;;14.10;100.00;90698.88;5034377;28;20033;-67
2023/07/03 02:19:14;;;;;;;8.73;2.55;;;;;;;14.09;100.00;90698.09;5034107;28;20026;-67
2023/07/03 02:21:40;;;;;;;1.98;1.80;;;;;;;14.11;100.00;90699.63;5033548;28;20108;-67
2023/07/03 02:24:07;;;;;;;0.98;0.98;;;;;;;14.13;100.00;90708.09;5034048;28;20040;-67
2023/07/03 02:26:33;;;;;;;1.27;1.17;;;;;;;14.15;100.00;90703.97;5034459;28;20030;-67
2023/07/03 02:28:58;;;;;;;1.50;1.40;;;;;;;14.14;100.00;90707.78;5034010;28;20048;-66
2023/07/03 02:31:24;;;;;;;1.95;1.83;;;;;;;14.11;100.00;90707.66;5033784;28;20104;-66
2023/07/03 02:33:49;;;;;;;1.85;1.10;;;;;;;14.11;100.00;90711.13;5034353;28;20100;-66
2023/07/03 02:36:14;;;;;;;2.17;2.05;;;;;;;14.00;100.00;90710.78;5033774;28;20100;-66
2023/07/03 02:38:40;;;;;;;1.83;1.73;;;;;;;14.01;100.00;90714.22;5033818;28;20106;-66
2023/07/03 02:41:05;;;;;;;4.72;3.05;;;;;;;14.04;100.00;90709.00;5033661;28;20089;-66
2023/07/03 02:43:31;;;;;;;4.82;2.75;;;;;;;14.04;100.00;90714.38;5033655;28;20021;-66
2023/07/03 02:46:05;;;;;;;2.03;1.92;;;;;;;13.98;100.00;90720.25;5033812;28;20483;-67
2023/07/03 02:48:31;;;;;;;2.08;1.92;;;;;;;13.88;100.00;90716.13;5033455;28;20033;-67
2023/07/03 02:50:56;;;;;;;3.30;2.08;;;;;;;13.84;100.00;90722.47;5033116;28;20088;-67
2023/07/03 02:53:22;;;;;;;1.80;1.70;;;;;;;13.83;100.00;90727.03;5033812;28;20121;-66
2023/07/03 02:55:50;;;;;;;2.35;2.05;;;;;;;13.77;100.00;90723.03;5033398;28;20025;-66
2023/07/03 02:58:18;;;;;;;1.48;1.38;;;;;;;13.79;100.00;90728.81;5033313;28;20546;-66
2023/07/03 03:00:43;;;;;;;4.25;2.55;;;;;;;13.68;100.00;90730.34;5033219;28;20039;-66
2023/07/03 03:03:09;;;;;;;1.65;1.55;;;;;;;13.70;100.00;90736.16;5033673;28;20021;-66
2023/07/03 03:05:34;;;;;;;1.38;1.27;;;;;;;13.69;100.00;90737.25;5027381;28;20030;-66
2023/07/03 03:07:59;;;;;;;2.10;2.00;;;;;;;13.76;100.00;90721.47;5013448;28;20462;-66
2023/07/03 03:10:25;;;;;;;3.83;3.53;;;;;;;13.83;100.00;90740.41;5013323;28;20103;-66
2023/07/03 03:12:50;;;;;;;2.72;2.50;;;;;;;13.79;100.00;90742.19;5013605;28;20483;-67
2023/07/03 03:15:17;;;;;;;8.35;2.38;;;;;;;13.79;100.00;90742.19;5013262;28;20042;-67
2023/07/03 03:17:43;;;;;;;3.85;2.53;;;;;;;13.77;100.00;90744.41;5013270;28;20053;-67
2023/07/03 03:20:10;;;;;;;1.08;1.08;;;;;;;13.85;100.00;90750.75;5013928;28;20033;-66
2023/07/03 03:22:35;;;;;;;2.17;2.08;;;;;;;13.91;100.00;90750.22;5013179;28;20060;-66
2023/07/03 03:25:01;;;;;;;13.07;3.65;;;;;;;13.93;100.00;90744.53;5013141;28;20069;-66
2023/07/03 03:27:26;;;;;;;1.95;1.85;;;;;;;13.97;100.00;90745.44;5013018;28;20026;-66
2023/07/03 03:29:52;;;;;;;1.60;1.52;;;;;;;14.01;100.00;90749.00;5012855;28;20037;-66
2023/07/03 03:32:17;;;;;;;1.48;1.45;;;;;;;14.06;100.00;90746.91;5012947;28;20048;-66
2023/07/03 03:34:43;;;;;;;3.97;2.20;;;;;;;14.12;100.00;90755.47;5012278;28;20083;-66
2023/07/03 03:37:08;;;;;;;2.80;2.47;;;;;;;14.21;100.00;90748.13;5012849;28;20030;-66
2023/07/03 03:39:34;;;;;;;2.50;2.40;;;;;;;14.27;100.00;90748.69;5012774;28;20076;-66
2023/07/03 03:41:59;;;;;;;1.77;1.67;;;;;;;14.30;100.00;90748.78;5012771;28;20116;-66
2023/07/03 03:44:25;;;;;;;1.63;1.52;;;;;;;14.38;100.00;90747.91;5013015;28;20117;-66
2023/07/03 03:46:53;;;;;;;2.80;2.13;;;;;;;14.50;100.00;90746.34;5012968;28;20029;-66
2023/07/03 03:49:19;;;;;;;3.20;2.92;;;;;;;14.46;100.00;90754.28;5012799;28;20045;-67
2023/07/03 03:51:44;;;;;;;2.83;2.38;;;;;;;14.56;100.00;90748.47;5012487;28;20095;-66
2023/07/03 03:54:10;;;;;;;2.33;2.13;;;;;;;14.58;100.00;90756.94;5012784;28;20022;-66
2023/07/03 03:56:35;;;;;;;1.88;1.77;;;;;;;14.51;100.00;90758.63;5012505;28;20411;-67
2023/07/03 03:59:01;;;;;;;3.17;2.50;;;;;;;14.61;100.00;90758.94;5012381;28;20041;-67
2023/07/03 04:01:26;;;;;;;1.63;1.52;;;;;;;14.71;100.00;90754.25;5012437;28;20030;-67
2023/07/03 04:03:52;;;;;;;1.42;1.33;;;;;;;14.76;100.00;90757.47;5012917;28;20029;-67
2023/07/03 04:06:17;;;;;;;4.97;2.20;;;;;;;14.75;100.00;90761.28;5011613;28;20389;-69
2023/07/03 04:08:43;;;;;;;3.45;1.98;;;;;;;14.79;100.00;90761.38;5012243;28;20057;-69
2023/07/03 04:11:09;;;;;;;2.45;2.28;;;;;;;14.83;100.00;90767.59;5012197;28;20030;-69
2023/07/03 04:13:35;;;;;;;1.95;1.85;;;;;;;14.91;100.00;90753.31;5012313;28;20514;-69
2023/07/03 04:16:02;;;;;;;22.65;19.42;;;;;;;15.15;100.00;90763.22;5012561;28;20030;-69
2023/07/03 04:18:28;;;;;;;18.20;13.68;;;;;;;15.46;100.00;90759.81;5012047;28;20040;-69
2023/07/03 04:20:54;;;;;;;21.33;17.42;;;;;;;15.69;100.00;90760.88;5012155;28;20030;-69
2023/07/03 04:23:19;;;;;;;28.08;16.90;;;;;;;15.95;100.00;90773.81;5012290;28;20032;-69
2023/07/03 04:25:45;;;;;;;21.55;16.45;;;;;;;16.09;100.00;90759.97;5012118;28;20440;-69
2023/07/03 04:28:12;;;;;;;5.25;4.75;;;;;;;16.26;100.00;90766.91;5012064;28;20040;-69
2023/07/03 04:30:38;;;;;;;4.40;3.30;;;;;;;16.32;100.00;90773.56;5012596;28;20029;-69
2023/07/03 04:33:04;;;;;;;4.78;3.25;;;;;;;16.46;100.00;90769.31;5012001;28;20381;-69
2023/07/03 04:35:29;;;;;;;7.97;5.03;;;;;;;16.54;100.00;90772.94;5012170;28;20049;-69
2023/07/03 04:37:54;;;;;;;7.57;5.03;;;;;;;16.69;100.00;90782.16;5012170;28;20459;-69
2023/07/03 04:40:20;;;;;;;5.72;5.03;;;;;;;16.65;100.00;90778.56;5012297;28;20397;-69
2023/07/03 04:42:46;;;;;;;3.42;3.08;;;;;;;16.67;100.00;90779.03;5012543;28;20037;-69
2023/07/03 04:45:13;;;;;;;3.08;2.80;;;;;;;16.78;100.00;90782.75;5013792;28;20117;-69
2023/07/03 04:47:39;;;;;;;2.63;2.42;;;;;;;16.86;100.00;90776.41;5016214;28;20022;-69
2023/07/03 04:50:10;;;;;;;3.40;3.15;;;;;;;17.09;100.00;90781.13;5015765;28;20477;-69
2023/07/03 04:52:38;;;;;;;2.42;2.22;;;;;;;17.36;100.00;90785.56;5016427;28;20132;-69
2023/07/03 04:55:05;;;;;;;3.60;3.22;;;;;;;17.53;100.00;90793.19;5015957;28;20104;-69
2023/07/03 04:57:31;;;;;;;5.38;4.68;;;;;;;17.57;100.00;90795.94;5015699;28;20381;-69
2023/07/03 04:59:56;;;;;;;4.20;2.83;;;;;;;17.58;100.00;90792.91;5015699;28;20029;-69
2023/07/03 05:02:22;;;;;;;2.05;1.95;;;;;;;17.78;100.00;90795.63;5015734;28;20033;-69
2023/07/03 05:04:47;;;;;;;5.07;4.53;;;;;;;17.98;100.00;90789.06;5015751;28;20022;-69
2023/07/03 05:07:16;;;;;;;2.30;2.10;;;;;;;18.20;100.00;90801.03;5015046;28;20037;-70
2023/07/03 05:09:41;;;;;;;4.47;3.28;;;;;;;18.42;100.00;90799.47;5015414;28;20030;-70
2023/07/03 05:12:07;;;;;;;5.57;3.95;;;;;;;18.41;100.00;90797.91;5015416;28;20110;-69
2023/07/03 05:14:35;;;;;;;4.18;3.83;;;;;;;18.46;100.00;90795.72;5015942;28;20033;-69
2023/07/03 05:17:02;;;;;;;6.15;3.72;;;;;;;18.75;100.00;90804.28;5015730;28;20034;-69
2023/07/03 05:19:27;;;;;;;8.07;4.82;;;;;;;18.96;100.00;90799.22;5015231;28;20034;-69
2023/07/03 05:21:53;;;;;;;2.85;2.63;;;;;;;18.79;100.00;90805.13;5015368;28;20033;-70
2023/07/03 05:24:18;;;;;;;3.78;3.45;;;;;;;19.08;100.00;90803.63;5015278;28;20022;-69
2023/07/03 05:26:44;;;;;;;2.47;2.28;;;;;;;19.27;100.00;90798.13;5015786;28;20077;-69
2023/07/03 05:29:10;;;;;;;3.92;3.55;;;;;;;19.35;100.00;90810.56;5015110;28;20032;-69
2023/07/03 05:31:35;;;;;;;4.20;3.90;;;;;;;19.34;100.00;90811.72;5015107;28;20026;-70
2023/07/03 05:34:00;;;;;;;3.17;2.75;;;;;;;19.28;100.00;90818.56;5015044;28;20480;-71
2023/07/03 05:36:26;;;;;;;4.68;4.07;;;;;;;19.65;100.00;90818.72;5015019;28;20033;-69
2023/07/03 05:38:51;;;;;;;3.40;3.13;;;;;;;19.87;100.00;90816.25;5014889;28;20033;-69
2023/07/03 05:41:17;;;;;;;6.55;4.78;;;;;;;20.12;100.00;90811.94;5015011;28;20030;-69
2023/07/03 05:43:42;;;;;;;3.10;2.80;;;;;;;20.28;100.00;90819.81;5015224;28;20033;-69
2023/07/03 05:46:07;;;;;;;4.00;3.60;;;;;;;20.19;100.00;90814.69;5015125;28;20025;-68
2023/07/03 05:48:33;;;;;;;5.45;4.32;;;;;;;20.26;100.00;90824.81;5014622;28;20476;-70
2023/07/03 05:50:58;;;;;;;2.92;2.67;;;;;;;21.79;100.00;90809.84;5014610;28;20050;-70
2023/07/03 05:53:24;;;;;;;4.55;3.42;;;;;;;25.15;100.00;90817.25;5015047;28;20040;-69
2023/07/03 05:55:56;;;;;;;6.03;3.28;;;;;;;27.59;100.00;90828.41;5014513;28;20025;-69
2023/07/03 05:58:23;;;;;;;2.50;2.33;;;;;;;29.33;96.56;90812.50;5014441;28;20054;-70
2023/07/03 06:00:49;;;;;;;2.63;2.42;;;;;;;30.25;69.34;90826.72;5014787;28;20021;-70
2023/07/03 06:03:15;;;;;;;5.07;2.75;;;;;;;31.45;59.81;90816.22;5014894;28;20120;-70
2023/07/03 06:05:41;;;;;;;3.78;3.22;;;;;;;33.82;52.21;90826.75;5014711;28;20084;-72
2023/07/03 06:08:07;;;;;;;3.55;2.78;;;;;;;34.52;47.25;90833.34;5014594;28;20030;-71
2023/07/03 06:10:32;;;;;;;3.65;2.92;;;;;;;36.00;43.96;90833.38;5014542;28;20073;-71
2023/07/03 06:12:58;;;;;;;4.72;3.58;;;;;;;35.82;43.55;90829.88;5014910;28;20022;-70
2023/07/03 06:15:24;;;;;;;3.90;2.95;;;;;;;34.98;44.97;90833.34;5014230;28;20408;-69
2023/07/03 06:17:50;;;;;;;5.50;3.60;;;;;;;34.34;46.03;90828.56;5013914;28;20024;-70
2023/07/03 06:20:15;;;;;;;4.97;3.45;;;;;;;34.12;44.65;90828.69;5013849;28;20093;-70
2023/07/03 06:22:42;;;;;;;4.05;3.22;;;;;;;34.79;43.88;90824.28;5013673;28;20014;-69
2023/07/03 06:25:08;;;;;;;3.78;2.72;;;;;;;33.56;44.28;90843.53;5006096;28;20053;-71
2023/07/03 06:27:34;;;;;;;3.53;3.20;;;;;;;35.22;43.24;90839.78;5011492;28;20503;-70
2023/07/03 06:30:00;;;;;;;3.10;2.80;;;;;;;36.20;40.21;90821.72;5013284;28;20026;-71
2023/07/03 06:32:25;;;;;;;4.05;2.78;;;;;;;37.06;39.47;90832.03;5013322;28;20026;-73
2023/07/03 06:34:50;;;;;;;4.20;3.33;;;;;;;38.77;37.41;90825.31;5013969;28;20033;-73
2023/07/03 06:37:16;;;;;;;3.00;2.63;;;;;;;37.58;36.93;90834.47;5013603;28;20026;-71
2023/07/03 06:39:41;;;;;;;4.97;1.73;;;;;;;34.87;40.46;90833.06;5013910;28;20030;-68
2023/07/03 06:42:07;;;;;;;4.47;3.58;;;;;;;35.10;42.19;90832.41;5013433;28;20057;-69
2023/07/03 06:44:33;;;;;;;9.02;3.10;;;;;;;36.41;39.78;90830.97;5013361;28;20036;-71
2023/07/03 06:46:58;;;;;;;2.83;2.28;;;;;;;36.92;39.58;90832.75;5013703;28;20030;-68
2023/07/03 06:49:24;;;;;;;2.42;2.20;;;;;;;38.57;37.48;90828.09;5013499;28;20034;-68
2023/07/03 06:51:51;;;;;;;4.47;2.72;;;;;;;37.47;37.58;90833.03;5012514;28;20057;-68
2023/07/03 06:54:17;;;;;;;3.40;2.58;;;;;;;37.48;37.73;90826.22;5013200;28;20030;-68
2023/07/03 06:56:42;;;;;;;4.88;3.40;;;;;;;38.17;37.59;90831.56;5012803;28;20036;-70
2023/07/03 06:59:08;;;;;;;3.08;2.10;;;;;;;37.86;36.42;90837.69;5012654;28;20026;-69
2023/07/03 07:01:33;;;;;;;1.90;1.75;;;;;;;39.15;35.08;90834.63;5012850;28;20030;-69
2023/07/03 07:03:59;;;;;;;2.83;1.90;;;;;;;38.46;35.74;90834.28;5012947;28;20472;-66
2023/07/03 07:06:27;;;;;;;2.38;2.08;;;;;;;40.39;33.20;90831.59;5013663;28;20045;-67
2023/07/03 07:08:53;;;;;;;2.67;2.05;;;;;;;40.32;33.41;90835.63;5012857;28;20026;-66
2023/07/03 07:11:21;;;;;;;4.07;3.17;;;;;;;38.89;34.11;90832.56;5012558;28;20029;-67
2023/07/03 07:13:50;;;;;;;2.03;1.75;;;;;;;40.18;31.41;90830.97;5012740;28;20049;-67
2023/07/03 07:16:24;;;;;;;1.52;1.42;;;;;;;40.75;29.52;90826.50;5012737;28;20025;-66
2023/07/03 07:18:57;;;;;;;2.55;1.95;;;;;;;41.47;29.50;90832.31;5012784;28;20554;-67
2023/07/03 07:21:23;;;;;;;;;;;;;;;40.00;31.93;90832.13;4994167;28;20073;-66
2023/07/03 07:23:57;;;;;;;3.65;2.08;;;;;;;40.33;30.27;90837.16;4993420;28;20411;-66
2023/07/03 07:26:33;;;;;;;2.00;1.52;;;;;;;40.10;31.58;90836.25;5009350;28;20113;-66
2023/07/03 07:28:59;;;;;;;1.02;1.02;;;;;;;37.83;33.42;90833.88;5012385;28;20036;-66
2023/07/03 07:31:26;;;;;;;2.15;1.65;;;;;;;35.98;35.03;90835.84;5013155;28;20023;-66
2023/07/03 07:33:52;;;;;;;2.13;1.92;;;;;;;37.92;33.27;90830.22;5012776;28;20064;-66
2023/07/03 07:36:20;;;;;;;5.43;3.05;;;;;;;37.86;34.04;90834.91;5013108;28;20069;-66
2023/07/03 07:38:48;;;;;;;2.03;1.48;;;;;;;39.55;31.44;90836.56;5012969;28;20026;-66
2023/07/03 07:41:13;;;;;;;3.00;1.98;;;;;;;38.43;32.92;90835.25;5012827;28;20068;-66
2023/07/03 07:43:39;;;;;;;2.08;1.63;;;;;;;36.26;34.21;90835.69;5012668;28;20466;-66
2023/07/03 07:46:04;;;;;;;3.38;2.60;;;;;;;31.81;40.57;90832.38;5012961;28;20088;-66
2023/07/03 07:48:30;;;;;;;3.28;2.30;;;;;;;29.07;47.00;90833.47;5012619;28;20514;-66
2023/07/03 07:50:55;;;;;;;25.23;16.95;;;;;;;27.88;51.29;90838.88;5012464;28;20046;-66
2023/07/03 07:53:21;;;;;;;2.88;2.67;;;;;;;30.06;50.30;90847.59;5012626;28;20120;-66
2023/07/03 07:55:46;;;;;;;2.03;1.80;;;;;;;31.93;45.66;90841.84;5012807;28;20034;-66
2023/07/03 07:58:12;;;;;;;4.22;3.05;;;;;;;33.64;44.22;90855.84;5012411;28;20100;-66
2023/07/03 08:00:40;;;;;;;6.15;2.45;;;;;;;34.15;41.74;90844.34;5012540;28;20060;-66
2023/07/03 08:03:05;;;;;;;6.78;2.53;;;;;;;36.25;38.82;90850.75;5012501;28;20049;-66
2023/07/03 08:05:31;;;;;;;4.47;2.85;;;;;;;37.52;37.94;90853.78;5012499;28;20511;-66
2023/07/03 08:07:56;;;;;;;2.83;2.05;;;;;;;35.01;40.81;90849.78;5011165;28;20034;-67
2023/07/03 08:10:21;;;;;;;1.95;1.85;;;;;;;37.48;36.79;90864.31;5011829;28;20045;-67
2023/07/03 08:12:47;;;;;;;2.85;2.17;;;;;;;37.01;38.13;90863.19;5012080;28;20040;-67
2023/07/03 08:15:12;;;;;;;2.20;2.00;;;;;;;37.08;37.44;90862.81;5011937;28;20034;-67
2023/07/03 08:17:38;;;;;;;3.63;2.63;;;;;;;35.82;39.84;90852.81;5004962;28;20057;-69
2023/07/03 08:20:11;;;;;;;3.63;2.08;;;;;;;35.59;40.92;90856.28;5010720;28;20053;-67
2023/07/03 08:22:36;;;;;;;;;;;;;;;34.39;41.21;90861.13;5012102;28;20108;-69
2023/07/03 08:25:02;;;;;;;1.85;1.75;;;;;;;31.46;45.69;90858.25;5011771;28;20367;-67
2023/07/03 08:27:27;;;;;;;4.20;3.25;;;;;;;30.75;50.34;90863.81;5012057;28;20034;-66
2023/07/03 08:29:52;;;;;;;3.25;2.47;;;;;;;34.65;44.16;90855.31;5011100;28;20065;-67
2023/07/03 08:32:19;;;;;;;2.28;1.98;;;;;;;35.67;42.27;90854.72;5008485;28;20145;-67
2023/07/03 08:34:45;;;;;;;3.38;2.65;;;;;;;37.47;38.66;90863.56;5008775;28;20411;-67
2023/07/03 08:37:10;;;;;;;1.88;1.77;;;;;;;38.73;35.62;90866.50;5011020;28;20030;-69
2023/07/03 08:39:39;;;;;;;3.03;2.60;;;;;;;38.60;38.06;90857.69;5011673;28;20484;-66
2023/07/03 08:42:21;;;;;;;1.70;1.52;;;;;;;39.23;37.14;90867.09;5011861;28;20056;-66
2023/07/03 08:44:46;;;;;;;2.65;2.45;;;;;;;38.70;37.22;90856.34;5012015;28;20082;-67
2023/07/03 08:47:19;;;;;;;3.15;1.95;;;;;;;37.47;39.19;90854.47;5011854;28;20066;-67
2023/07/03 08:49:46;;;;;;;2.80;2.47;;;;;;;35.89;39.65;90860.81;5011515;28;20049;-66
2023/07/03 08:52:17;;;;;;;2.03;1.77;;;;;;;33.21;42.80;90848.41;5011709;28;20050;-67
2023/07/03 08:54:43;;;;;;;4.35;3.22;;;;;;;32.90;45.56;90855.88;5011906;28;20049;-66
2023/07/03 08:57:10;;;;;;;3.05;2.80;;;;;;;34.94;43.48;90852.09;5011799;28;20038;-66
2023/07/03 08:59:36;;;;;;;10.50;2.80;;;;;;;37.15;38.86;90847.81;5012117;28;20416;-64
2023/07/03 09:02:39;;;;;;;3.10;2.53;;;;;;;36.97;39.48;90854.31;5011540;28;20041;-67
2023/07/03 09:05:05;;;;;;;2.88;2.28;;;;;;;38.15;39.67;90857.06;4975180;28;20082;-67
2023/07/03 09:07:38;;;;;;;3.42;2.75;;;;;;;39.99;36.13;90857.69;5011569;28;20072;-66
2023/07/03 09:10:17;;;;;;;9.90;2.50;;;;;;;38.63;37.61;90853.94;5011656;28;20095;-66
2023/07/03 09:12:51;;;;;;;1.65;1.55;;;;;;;40.00;34.92;90857.19;5011947;28;20030;-66
2023/07/03 09:15:43;;;;;;;2.05;1.92;;;;;;;39.84;34.41;90860.59;5011853;28;20042;-66
2023/07/03 09:18:17;;;;;;;4.53;3.00;;;;;;;33.51;43.00;90859.91;5011481;28;20045;-66
2023/07/03 09:20:43;;;;;;;4.40;3.75;;;;;;;31.78;46.56;90846.25;5011192;28;20061;-65
2023/07/03 09:23:21;;;;;;;2.55;1.85;;;;;;;33.50;44.85;90845.34;5011908;28;20093;-65
2023/07/03 09:25:53;;;;;;;5.55;3.13;;;;;;;35.85;42.88;90849.16;5011716;28;20037;-65
2023/07/03 09:28:19;;;;;;;2.13;1.90;;;;;;;36.14;39.40;90848.53;5011679;28;20045;-66
2023/07/03 09:30:45;;;;;;;3.05;2.22;;;;;;;34.53;45.35;90860.53;5012010;28;20037;-67
2023/07/03 09:33:10;;;;;;;2.33;2.13;;;;;;;35.55;42.55;90856.47;5015200;28;20042;-65
2023/07/03 09:35:40;;;;;;;3.83;2.10;;;;;;;35.19;43.21;90854.53;5014739;28;20571;-63
2023/07/03 09:38:15;;;;;;;3.78;2.55;;;;;;;35.27;43.33;90855.72;5015086;28;20045;-63
2023/07/03 09:40:43;;;;;;;2.35;2.15;;;;;;;36.58;40.13;90851.50;5014944;28;20077;-63
2023/07/03 09:43:21;;;;;;;1.67;1.58;;;;;;;34.93;42.00;90856.88;5014742;28;20107;-63
2023/07/03 09:45:47;;;;;;;3.60;2.65;;;;;;;34.98;42.35;90863.78;5015088;28;20492;-62
2023/07/03 09:48:24;;;;;;;2.38;1.63;;;;;;;32.49;43.59;90860.41;5015149;28;20095;-63
2023/07/03 09:50:50;;;;;;;2.55;2.33;;;;;;;30.40;51.39;90849.06;5014265;28;20164;-62
2023/07/03 09:53:19;;;;;;;3.00;1.52;;;;;;;32.29;49.65;90852.44;5014808;28;20041;-62
2023/07/03 09:55:51;;;;;;;2.38;1.67;;;;;;;33.55;44.56;90853.03;5014766;28;20116;-62
2023/07/03 09:58:17;;;;;;;2.17;1.95;;;;;;;35.15;43.12;90856.66;5014842;28;20042;-62
2023/07/03 10:00:54;;;;;;;2.13;2.03;;;;;;;37.37;39.96;90848.22;5014559;28;20060;-64
2023/07/03 10:03:23;;;;;;;3.08;1.50;;;;;;;37.26;38.76;90856.34;5014499;28;20042;-64
2023/07/03 10:05:49;;;;;;;2.03;1.88;;;;;;;34.90;41.51;90851.50;5014047;28;20038;-63
2023/07/03 10:08:27;;;;;;;2.58;2.38;;;;;;;31.65;46.29;90846.25;5014234;28;20571;-63
2023/07/03 10:10:56;;;;;;;8.05;3.15;;;;;;;30.92;51.30;90853.53;5013870;28;20120;-63
2023/07/03 10:13:28;;;;;;;5.88;2.65;;;;;;;33.25;47.80;90859.28;5014148;28;20041;-63
2023/07/03 10:15:55;;;;;;;5.72;2.85;;;;;;;34.33;44.05;90848.34;5014026;28;20034;-63
2023/07/03 10:18:23;;;;;;;1.98;1.85;;;;;;;36.12;41.34;90853.75;5014197;28;20045;-63
2023/07/03 10:20:50;;;;;;;16.25;4.05;;;;;;;34.06;43.77;90855.34;5013768;28;20053;-63
2023/07/03 10:23:25;;;;;;;3.60;2.42;;;;;;;31.58;48.02;90850.00;5014115;28;20038;-63
2023/07/03 10:25:56;;;;;;;1.65;1.48;;;;;;;28.66;56.30;90851.13;5014106;28;20080;-63
2023/07/03 10:28:28;;;;;;;2.80;2.58;;;;;;;31.31;53.36;90854.38;5014177;28;20045;-63
2023/07/03 10:30:59;;;;;;;1.40;1.23;;;;;;;33.87;46.05;90854.53;5014002;28;20037;-63
2023/07/03 10:33:36;;;;;;;2.35;2.13;;;;;;;34.21;43.75;90859.06;5013780;28;20042;-63
2023/07/03 10:36:06;;;;;;;3.35;2.42;;;;;;;32.95;44.99;90856.03;5013850;28;20074;-63
2023/07/03 10:38:58;;;;;;;2.30;2.10;;;;;;;35.11;42.11;90858.84;5013686;28;20408;-64
2023/07/03 10:41:47;;;;;;;2.05;1.92;;;;;;;36.96;41.96;90858.31;5014234;28;20041;-64
2023/07/03 10:44:18;;;;;;;4.40;3.00;;;;;;;37.22;38.04;90860.53;5013459;28;20046;-64
2023/07/03 10:46:58;;;;;;;1.83;1.40;;;;;;;37.38;38.95;90863.63;5013736;28;20484;-64
2023/07/03 10:49:35;;;;;;;2.00;1.90;;;;;;;36.62;40.05;90850.56;5012940;28;20065;-63
2023/07/03 10:52:07;;;;;;;2.70;2.42;;;;;;;35.91;39.15;90852.78;5013343;28;20218;-64
2023/07/03 10:54:41;;;;;;;1.90;1.50;;;;;;;31.79;45.37;90859.56;5013783;28;20048;-64
2023/07/03 10:57:16;;;;;;;2.22;2.03;;;;;;;34.24;42.42;90849.91;5013264;28;20427;-63
2023/07/03 10:59:46;;;;;;;1.67;1.52;;;;;;;36.39;40.46;90843.78;5013414;28;20113;-64
2023/07/03 11:02:30;;;;;;;2.17;1.75;;;;;;;33.28;43.62;90861.91;5013758;28;20037;-63
2023/07/03 11:05:02;;;;;;;3.10;2.53;;;;;;;30.87;46.54;90843.09;5013217;28;20136;-63
2023/07/03 11:07:55;;;;;;;2.33;1.95;;;;;;;31.65;48.49;90856.47;5013441;28;20615;-63
2023/07/03 11:10:20;;;;;;;3.35;2.50;;;;;;;32.15;46.08;90850.13;5013427;28;20045;-63
2023/07/03 11:13:07;;;;;;;2.73;2.40;;;;;;;31.66;46.58;90853.28;5013070;28;20083;-64
2023/07/03 11:16:03;;;;;;;1.52;1.42;;;;;;;33.53;45.97;90844.44;5013192;28;20306;-64
2023/07/03 11:18:38;;;;;;;2.92;2.42;;;;;;;34.23;44.29;90851.09;5012450;28;20049;-64
2023/07/03 11:21:19;;;;;;;4.75;2.63;;;;;;;34.78;42.14;90845.63;5013021;28;20385;-64
2023/07/03 11:23:44;;;;;;;3.95;1.85;;;;;;;34.61;42.26;90838.88;5012985;28;20048;-64
2023/07/03 11:26:20;;;;;;;2.22;1.92;;;;;;;34.28;42.61;90835.16;5012874;28;20042;-65
2023/07/03 11:28:52;;;;;;;2.95;2.20;;;;;;;35.70;42.14;90837.94;5012823;28;20026;-65
2023/07/03 11:31:18;;;;;;;2.45;1.98;;;;;;;36.95;39.36;90829.06;5012778;28;20025;-64
2023/07/03 11:33:45;;;;;;;3.47;3.03;;;;;;;37.32;40.23;90828.72;5012563;28;20030;-64